createdAt,value
2022-12-26T00:02:20.713Z,99935.22
2022-12-26T00:07:24.569Z,99929.53
2022-12-26T00:12:28.326Z,99934.34
2022-12-26T00:17:33.621Z,99919.53
2022-12-26T00:22:37.283Z,99945.22
2022-12-26T00:27:42.311Z,99932.25
2022-12-26T00:32:47.408Z,99939.78
2022-12-26T00:37:50.871Z,99935.22
2022-12-26T00:42:55.609Z,99937.22
2022-12-26T00:48:00.481Z,99943.06
2022-12-26T00:53:03.932Z,99942.44
2022-12-26T00:58:07.574Z,99933.81
2022-12-26T01:03:13.653Z,99923.66
2022-12-26T01:08:19.750Z,99926.31
2022-12-26T01:13:25.672Z,99927.06
2022-12-26T01:18:30.878Z,99914.16
2022-12-26T01:23:34.360Z,99926.44
2022-12-26T01:28:38.335Z,99928.28
2022-12-26T01:33:43.182Z,99938.78
2022-12-26T01:38:47.789Z,99930.66
2022-12-26T01:43:57.225Z,99938.00
2022-12-26T01:49:08.048Z,99943.69
2022-12-26T01:54:37.337Z,99949.75
2022-12-26T01:59:39.159Z,99961.47
2022-12-26T02:05:05.768Z,99960.66
2022-12-26T02:10:14.191Z,99968.56
2022-12-26T02:15:18.882Z,99971.69
2022-12-26T02:20:27.631Z,99951.72
2022-12-26T02:26:17.828Z,99950.38
2022-12-26T02:31:33.562Z,99949.69
2022-12-26T02:37:04.463Z,99952.44
2022-12-26T02:42:18.950Z,99957.84
2022-12-26T02:47:34.861Z,99972.94
2022-12-26T02:53:08.586Z,99963.78
2022-12-26T02:58:37.813Z,99971.44
2022-12-26T03:04:02.525Z,99962.38
2022-12-26T03:09:26.559Z,99964.66
2022-12-26T03:14:33.653Z,99966.81
2022-12-26T03:19:58.439Z,99959.88
2022-12-26T03:25:23.008Z,99960.50
2022-12-26T03:30:43.835Z,99954.63
2022-12-26T03:35:48.735Z,99955.97
2022-12-26T03:41:14.987Z,99962.03
2022-12-26T03:46:42.542Z,99948.78
2022-12-26T03:52:24.880Z,99954.63
2022-12-26T03:57:53.346Z,99951.09
2022-12-26T04:03:20.294Z,99963.34
2022-12-26T04:08:47.273Z,99965.69
2022-12-26T04:14:15.578Z,99961.66
2022-12-26T04:19:38.055Z,99967.59
2022-12-26T04:25:09.144Z,99972.78
2022-12-26T04:30:30.445Z,99972.50
2022-12-26T04:35:55.924Z,99976.56
2022-12-26T04:41:20.518Z,99987.63
2022-12-26T04:46:26.120Z,99993.22
2022-12-26T04:51:29.750Z,99986.56
2022-12-26T04:56:34.636Z,100007.53
2022-12-26T05:01:55.462Z,100014.28
2022-12-26T05:07:17.347Z,100016.31
2022-12-26T05:12:22.491Z,100014.75
2022-12-26T05:17:43.426Z,100018.41
2022-12-26T05:23:06.314Z,100024.53
2022-12-26T05:28:29.920Z,100030.94
2022-12-26T05:33:50.771Z,100028.31
2022-12-26T05:38:56.271Z,100039.47
2022-12-26T05:44:01.221Z,100035.41
2022-12-26T05:49:05.740Z,100038.44
2022-12-26T05:54:09.754Z,100051.59
2022-12-26T05:59:14.741Z,100047.72
2022-12-26T06:04:18.489Z,100039.75
2022-12-26T06:09:21.942Z,100024.66
2022-12-26T06:14:26.840Z,100030.47
2022-12-26T06:19:30.287Z,100022.06
2022-12-26T06:24:33.820Z,100017.03
2022-12-26T06:29:38.809Z,100018.56
2022-12-26T06:34:42.305Z,100023.22
2022-12-26T06:39:45.773Z,100042.00
2022-12-26T06:44:50.622Z,100051.41
2022-12-26T06:49:54.027Z,100056.84
2022-12-26T06:54:58.906Z,100063.38
2022-12-26T07:00:04.582Z,100066.13
2022-12-26T07:05:09.132Z,100067.03
2022-12-26T07:10:14.160Z,100068.31
2022-12-26T07:15:19.024Z,100063.09
2022-12-26T07:20:22.512Z,100071.44
2022-12-26T07:25:25.961Z,100073.97
2022-12-26T07:30:31.098Z,100084.53
2022-12-26T07:35:34.804Z,100090.31
2022-12-26T07:40:38.660Z,100094.38
2022-12-26T07:45:45.974Z,100081.97
2022-12-26T07:50:49.834Z,100075.47
2022-12-26T07:55:53.204Z,100069.47
2022-12-26T08:00:58.037Z,100078.69
2022-12-26T08:06:01.759Z,100085.69
2022-12-26T08:11:06.839Z,100066.16
2022-12-26T08:16:14.556Z,100063.84
2022-12-26T08:21:18.113Z,100066.47
2022-12-26T08:26:27.571Z,100055.56
2022-12-26T08:31:32.700Z,100053.50
2022-12-26T08:36:36.385Z,100055.31
2022-12-26T08:41:40.041Z,100054.69
2022-12-26T08:46:45.314Z,100052.75
2022-12-26T08:51:49.004Z,100048.63
2022-12-26T08:56:52.465Z,100033.84
2022-12-26T09:01:57.489Z,100022.38
2022-12-26T09:07:01.038Z,100023.16
2022-12-26T09:12:04.565Z,100022.78
2022-12-26T09:17:09.492Z,100000.75
2022-12-26T09:22:35.062Z,99991.13
2022-12-26T09:27:38.837Z,99998.91
2022-12-26T09:32:43.678Z,100000.09
2022-12-26T09:37:47.494Z,99986.31
2022-12-26T09:43:02.081Z,99987.28
2022-12-26T09:48:15.369Z,99978.31
2022-12-26T09:53:25.337Z,99967.13
2022-12-26T09:58:31.682Z,99957.56
2022-12-26T10:03:43.096Z,99954.13
2022-12-26T10:09:10.329Z,99955.03
2022-12-26T10:14:22.254Z,99959.47
2022-12-26T10:19:41.384Z,99952.47
2022-12-26T10:24:46.161Z,99945.44
2022-12-26T10:29:53.456Z,99943.75
2022-12-26T10:34:59.567Z,99947.25
2022-12-26T10:40:22.636Z,99940.25
2022-12-26T10:45:38.187Z,99924.56
2022-12-26T10:50:47.963Z,99915.84
2022-12-26T10:55:51.823Z,99909.72
2022-12-26T11:00:55.263Z,99905.34
2022-12-26T11:06:07.917Z,99889.63
2022-12-26T11:11:15.543Z,99886.09
2022-12-26T11:16:26.953Z,99875.50
2022-12-26T11:21:33.157Z,99874.28
2022-12-26T11:26:37.498Z,99862.16
2022-12-26T11:31:43.335Z,99851.75
2022-12-26T11:36:51.050Z,99844.97
2022-12-26T11:41:55.902Z,99843.25
2022-12-26T11:47:03.072Z,99833.78
2022-12-26T11:52:39.690Z,99826.81
2022-12-26T11:57:43.136Z,99816.31
2022-12-26T12:02:47.286Z,99822.44
2022-12-26T12:08:22.221Z,99827.69
2022-12-26T12:13:47.034Z,99815.47
2022-12-26T12:18:58.788Z,99828.56
2022-12-26T12:24:30.156Z,99832.94
2022-12-26T12:30:08.620Z,99838.16
2022-12-26T12:35:33.448Z,99831.19
2022-12-26T12:40:47.469Z,99832.06
2022-12-26T12:46:01.820Z,99839.84
2022-12-26T12:51:15.330Z,99839.84
2022-12-26T12:56:29.433Z,99847.66
2022-12-26T13:01:37.422Z,99849.38
2022-12-26T13:06:45.261Z,99851.91
2022-12-26T13:11:54.887Z,99845.78
2022-12-26T13:17:02.599Z,99835.94
2022-12-26T13:22:16.115Z,99831.63
2022-12-26T13:27:25.849Z,99837.56
2022-12-26T13:32:32.004Z,99843.56
2022-12-26T13:37:57.609Z,99846.81
2022-12-26T13:43:30.491Z,99844.00
2022-12-26T13:49:27.572Z,99826.44
2022-12-26T13:54:32.105Z,99821.31
2022-12-26T13:59:42.181Z,99820.84
2022-12-26T14:05:10.934Z,99826.75
2022-12-26T14:10:19.721Z,99810.88
2022-12-26T14:15:58.586Z,99813.78
2022-12-26T14:21:25.316Z,99827.34
2022-12-26T14:26:40.039Z,99821.28
2022-12-26T14:31:53.228Z,99819.38
2022-12-26T14:37:03.431Z,99815.50
2022-12-26T14:42:42.269Z,99808.09
2022-12-26T14:47:50.053Z,99802.69
2022-12-26T14:52:53.667Z,99802.25
2022-12-26T14:57:57.639Z,99803.59
2022-12-26T15:03:32.545Z,99804.34
2022-12-26T15:08:51.675Z,99815.13
2022-12-26T15:14:37.545Z,99819.81
2022-12-26T15:20:14.548Z,99830.81
2022-12-26T15:25:44.968Z,99835.91
2022-12-26T15:31:02.552Z,99835.78
2022-12-26T15:36:08.958Z,99839.69
2022-12-26T15:41:18.899Z,99843.28
2022-12-26T15:46:25.856Z,99843.22
2022-12-26T15:51:42.773Z,99838.88
2022-12-26T15:57:05.711Z,99834.84
2022-12-26T16:02:14.094Z,99827.91
2022-12-26T16:07:29.892Z,99829.38
2022-12-26T16:12:38.604Z,99831.53
2022-12-26T16:17:43.129Z,99839.72
2022-12-26T16:22:47.831Z,99835.25
2022-12-26T16:27:55.351Z,99828.84
2022-12-26T16:33:03.884Z,99830.13
2022-12-26T16:38:13.711Z,99824.13
2022-12-26T16:43:29.687Z,99818.19
2022-12-26T16:48:35.281Z,99813.75
2022-12-26T16:53:46.065Z,99802.66
2022-12-26T16:58:58.684Z,99796.31
2022-12-26T17:04:08.255Z,99802.47
2022-12-26T17:09:17.143Z,99803.03
2022-12-26T17:14:26.515Z,99796.31
2022-12-26T17:19:31.840Z,99791.47
2022-12-26T17:24:35.408Z,99781.19
2022-12-26T17:29:55.720Z,99788.06
2022-12-26T17:35:02.743Z,99778.44
2022-12-26T17:40:20.337Z,99776.81
2022-12-26T17:45:27.642Z,99760.84
2022-12-26T17:50:33.610Z,99761.31
2022-12-26T17:55:37.616Z,99766.47
2022-12-26T18:00:46.774Z,99769.13
2022-12-26T18:05:52.548Z,99776.97
2022-12-26T18:10:56.396Z,99779.31
2022-12-26T18:16:01.850Z,99756.78
2022-12-26T18:21:07.490Z,99758.66
2022-12-26T18:26:18.123Z,99764.66
2022-12-26T18:31:23.364Z,99751.56
2022-12-26T18:36:32.657Z,99750.84
2022-12-26T18:41:36.590Z,99745.97
2022-12-26T18:46:41.585Z,99731.97
2022-12-26T18:51:45.542Z,99720.09
2022-12-26T18:56:51.199Z,99727.09
2022-12-26T19:01:56.349Z,99718.59
2022-12-26T19:06:59.906Z,99712.09
2022-12-26T19:12:03.801Z,99715.34
2022-12-26T19:17:09.770Z,99711.03
2022-12-26T19:22:13.540Z,99711.75
2022-12-26T19:27:17.079Z,99706.56
2022-12-26T19:32:22.302Z,99697.97
2022-12-26T19:37:26.371Z,99694.47
2022-12-26T19:42:29.983Z,99698.94
2022-12-26T19:47:35.369Z,99705.84
2022-12-26T19:52:41.156Z,99704.25
2022-12-26T19:57:44.898Z,99697.22
2022-12-26T20:02:49.845Z,99702.41
2022-12-26T20:07:53.619Z,99703.84
2022-12-26T20:12:57.110Z,99692.81
2022-12-26T20:18:02.079Z,99690.16
2022-12-26T20:23:05.537Z,99673.69
2022-12-26T20:28:09.129Z,99673.56
2022-12-26T20:33:14.263Z,99674.72
2022-12-26T20:38:18.081Z,99659.00
2022-12-26T20:43:21.960Z,99658.88
2022-12-26T20:48:26.863Z,99669.03
2022-12-26T20:53:30.748Z,99662.28
2022-12-26T20:58:36.148Z,99661.09
2022-12-26T21:03:41.597Z,99652.25
2022-12-26T21:08:46.814Z,99646.94
2022-12-26T21:13:51.130Z,99644.38
2022-12-26T21:18:56.406Z,99647.13
2022-12-26T21:24:02.398Z,99640.97
2022-12-26T21:29:07.850Z,99636.59
2022-12-26T21:34:18.896Z,99630.50
2022-12-26T21:39:22.330Z,99637.22
2022-12-26T21:44:25.769Z,99630.97
2022-12-26T21:49:30.727Z,99618.69
2022-12-26T21:54:52.083Z,99620.31
2022-12-26T21:59:59.164Z,99617.00
2022-12-26T22:05:04.903Z,99607.22
2022-12-26T22:10:29.832Z,99604.53
2022-12-26T22:15:50.662Z,99596.19
2022-12-26T22:20:55.596Z,99585.97
2022-12-26T22:25:59.329Z,99574.94
2022-12-26T22:31:03.394Z,99571.19
2022-12-26T22:36:10.083Z,99565.66
2022-12-26T22:41:13.436Z,99558.59
2022-12-26T22:46:16.899Z,99555.94
2022-12-26T22:51:24.007Z,99557.69
2022-12-26T22:56:28.156Z,99543.69
2022-12-26T23:01:32.206Z,99550.56
2022-12-26T23:06:39.965Z,99554.38
2022-12-26T23:12:03.969Z,99553.44
2022-12-26T23:17:09.596Z,99561.47
2022-12-26T23:22:14.917Z,99547.63
2022-12-26T23:27:35.984Z,99550.31
2022-12-26T23:32:40.997Z,99547.13
2022-12-26T23:37:45.781Z,99551.69
2022-12-26T23:42:50.519Z,99545.63
2022-12-26T23:47:53.930Z,99543.88
2022-12-26T23:52:58.749Z,99532.44
2022-12-26T23:58:02.216Z,99541.72
